PAL730 RPLL-VTBS
Flight info
| Callsign | PAL730 |
|---|---|
| Flight time | N/A |
| Altitude | 38000 |
| Route | SIRCA2R SIRCA L628 ARESI/K0889F380 L628 PCA G474 ANINA/N0478F380 G474 VEMKO M633 DULEM TUMGA1C |
| Aircraft | B77W/H-SDE1E2E3FGHIJ2J3J4J5M1RWXY/LB1D1 |
Departure
| Time | 2026-05-06 07:29 |
|---|---|
| Airport | Ninoy Aquino International Airport (RPLL) |
Arrival
| Time | N/A |
|---|---|
| Airport | Suvarnabhumi Airport (VTBS) |
| Time | Latitude | Longitude | Altitude | Speed | Heading |
|---|---|---|---|---|---|
| 2026-05-06 06:41 | 14.50473 | 121.00594 | 87 ft | 0 kts | 15° |
| 2026-05-06 07:12 | 14.50472 | 121.00594 | 87 ft | 1 kts | 15° |
| 2026-05-06 07:13 | 14.50458 | 121.00590 | 87 ft | 2 kts | 14° |
| 2026-05-06 07:13 | 14.50444 | 121.00586 | 87 ft | 2 kts | 14° |
| 2026-05-06 07:13 | 14.50429 | 121.00582 | 87 ft | 2 kts | 14° |
| 2026-05-06 07:13 | 14.50419 | 121.00579 | 87 ft | 1 kts | 14° |
| 2026-05-06 07:14 | 14.50404 | 121.00577 | 87 ft | 2 kts | 354° |
| 2026-05-06 07:14 | 14.50390 | 121.00581 | 87 ft | 2 kts | 330° |
| 2026-05-06 07:14 | 14.50379 | 121.00590 | 87 ft | 2 kts | 310° |
| 2026-05-06 07:14 | 14.50371 | 121.00603 | 87 ft | 2 kts | 289° |
| 2026-05-06 07:15 | 14.50368 | 121.00618 | 87 ft | 2 kts | 268° |
| 2026-05-06 07:15 | 14.50371 | 121.00633 | 87 ft | 2 kts | 247° |
| 2026-05-06 07:15 | 14.50374 | 121.00639 | 87 ft | 1 kts | 239° |
| 2026-05-06 07:15 | 14.50375 | 121.00641 | 87 ft | 0 kts | 239° |
| 2026-05-06 07:18 | 14.50373 | 121.00638 | 87 ft | 1 kts | 239° |
| 2026-05-06 07:18 | 14.50362 | 121.00618 | 87 ft | 3 kts | 239° |
| 2026-05-06 07:18 | 14.50340 | 121.00579 | 87 ft | 8 kts | 240° |
| 2026-05-06 07:18 | 14.50302 | 121.00512 | 87 ft | 12 kts | 240° |
| 2026-05-06 07:19 | 14.50263 | 121.00441 | 87 ft | 10 kts | 242° |
| 2026-05-06 07:19 | 14.50230 | 121.00378 | 87 ft | 9 kts | 241° |
| 2026-05-06 07:19 | 14.50203 | 121.00335 | 87 ft | 3 kts | 218° |
| 2026-05-06 07:19 | 14.50182 | 121.00330 | 87 ft | 2 kts | 174° |
| 2026-05-06 07:20 | 14.50156 | 121.00339 | 87 ft | 4 kts | 166° |
| 2026-05-06 07:20 | 14.50115 | 121.00317 | 87 ft | 9 kts | 234° |
| 2026-05-06 07:20 | 14.50072 | 121.00243 | 87 ft | 14 kts | 240° |
| 2026-05-06 07:20 | 14.50019 | 121.00150 | 87 ft | 14 kts | 240° |
| 2026-05-06 07:21 | 14.49972 | 121.00063 | 87 ft | 12 kts | 240° |
| 2026-05-06 07:21 | 14.49938 | 121.00003 | 87 ft | 7 kts | 240° |
| 2026-05-06 07:21 | 14.49910 | 120.99968 | 87 ft | 5 kts | 211° |
| 2026-05-06 07:21 | 14.49888 | 120.99963 | 87 ft | 0 kts | 171° |
| 2026-05-06 07:27 | 14.49869 | 120.99971 | 87 ft | 7 kts | 154° |
| 2026-05-06 07:27 | 14.49833 | 120.99992 | 87 ft | 5 kts | 149° |
| 2026-05-06 07:27 | 14.49805 | 121.00014 | 87 ft | 4 kts | 122° |
| 2026-05-06 07:28 | 14.49804 | 121.00037 | 87 ft | 2 kts | 72° |
| 2026-05-06 07:28 | 14.49809 | 121.00048 | 87 ft | 0 kts | 68° |
| 2026-05-06 07:28 | 14.49869 | 121.00169 | 87 ft | 54 kts | 59° |
| 2026-05-06 07:29 | 14.50198 | 121.00753 | 87 ft | 132 kts | 59° |
| 2026-05-06 07:29 | 14.50770 | 121.01777 | 169 ft | 191 kts | 63° |
| 2026-05-06 07:29 | 14.51449 | 121.02979 | 989 ft | 197 kts | 62° |
| 2026-05-06 07:29 | 14.52146 | 121.04170 | 2021 ft | 200 kts | 61° |
| 2026-05-06 07:30 | 14.52819 | 121.05408 | 2732 ft | 203 kts | 65° |
| 2026-05-06 07:30 | 14.53488 | 121.06700 | 3379 ft | 208 kts | 63° |
| 2026-05-06 07:30 | 14.54234 | 121.08039 | 3736 ft | 232 kts | 62° |